createdAt,value
2017-07-30T00:00:08.557Z,21.63
2017-07-30T00:01:05.913Z,21.64
2017-07-30T00:02:03.284Z,21.62
2017-07-30T00:03:00.542Z,21.60
2017-07-30T00:03:57.897Z,21.61
2017-07-30T00:04:55.181Z,21.58
2017-07-30T00:05:52.524Z,21.59
2017-07-30T00:06:49.760Z,21.57
2017-07-30T00:07:47.160Z,21.57
2017-07-30T00:08:44.408Z,21.55
2017-07-30T00:09:41.671Z,21.55
2017-07-30T00:10:39.098Z,21.55
2017-07-30T00:11:36.540Z,21.54
2017-07-30T00:12:33.808Z,21.52
2017-07-30T00:13:31.797Z,21.52
2017-07-30T00:14:29.074Z,21.50
2017-07-30T00:15:26.373Z,21.50
2017-07-30T00:16:23.628Z,21.49
2017-07-30T00:17:20.900Z,21.47
2017-07-30T00:18:18.167Z,21.47
2017-07-30T00:19:15.516Z,21.46
2017-07-30T00:20:12.787Z,21.45
2017-07-30T00:21:10.101Z,21.45
2017-07-30T00:22:07.349Z,21.43
2017-07-30T00:23:04.630Z,21.42
2017-07-30T00:24:01.861Z,21.42
2017-07-30T00:24:59.263Z,21.40
2017-07-30T00:25:56.527Z,21.40
2017-07-30T00:26:53.815Z,21.38
2017-07-30T00:27:51.060Z,21.37
2017-07-30T00:28:48.348Z,21.36
2017-07-30T00:29:45.630Z,21.35
2017-07-30T00:30:42.888Z,21.34
2017-07-30T00:31:40.167Z,21.34
2017-07-30T00:32:37.429Z,21.31
2017-07-30T00:33:34.660Z,21.31
2017-07-30T00:34:31.936Z,21.30
2017-07-30T00:35:29.184Z,21.29
2017-07-30T00:36:26.477Z,21.29
2017-07-30T00:37:23.700Z,21.29
2017-07-30T00:38:20.970Z,21.27
2017-07-30T00:39:18.201Z,21.27
2017-07-30T00:40:15.485Z,21.25
2017-07-30T00:41:12.780Z,21.25
2017-07-30T00:42:10.076Z,21.25
2017-07-30T00:43:07.338Z,21.23
2017-07-30T00:44:04.637Z,21.22
2017-07-30T00:45:01.955Z,21.23
2017-07-30T00:45:59.219Z,21.20
2017-07-30T00:46:56.497Z,21.19
2017-07-30T00:47:53.773Z,21.19
2017-07-30T00:48:51.110Z,21.19
2017-07-30T00:49:48.370Z,21.17
2017-07-30T00:50:45.621Z,21.16
2017-07-30T00:51:42.911Z,21.16
2017-07-30T00:52:40.146Z,21.15
2017-07-30T00:53:37.540Z,21.14
2017-07-30T00:54:34.781Z,21.13
2017-07-30T00:55:32.077Z,21.12
2017-07-30T00:56:29.369Z,21.12
2017-07-30T00:57:26.674Z,21.11
2017-07-30T00:58:23.901Z,21.10
2017-07-30T00:59:21.165Z,21.08
2017-07-30T01:00:18.390Z,21.09
2017-07-30T01:01:15.668Z,21.08
2017-07-30T01:02:12.940Z,21.07
2017-07-30T01:03:10.221Z,21.05
2017-07-30T01:04:07.454Z,21.05
2017-07-30T01:05:04.738Z,21.04
2017-07-30T01:06:01.976Z,21.03
2017-07-30T01:06:59.285Z,21.03
2017-07-30T01:07:56.536Z,21.02
2017-07-30T01:08:53.854Z,21.02
2017-07-30T01:09:55.053Z,21.01
2017-07-30T01:10:55.709Z,20.99
2017-07-30T01:11:52.985Z,20.98
2017-07-30T01:12:50.604Z,20.97
2017-07-30T01:13:47.932Z,20.96
2017-07-30T01:14:45.191Z,20.95
2017-07-30T01:15:42.465Z,20.93
2017-07-30T01:16:39.724Z,20.93
2017-07-30T01:17:37.012Z,20.93
2017-07-30T01:18:34.256Z,20.92
2017-07-30T01:19:31.562Z,20.92
2017-07-30T01:20:28.797Z,20.91
2017-07-30T01:21:26.052Z,20.90
2017-07-30T01:22:23.300Z,20.87
2017-07-30T01:23:20.568Z,20.87
2017-07-30T01:24:17.824Z,20.87
2017-07-30T01:25:15.088Z,20.86
2017-07-30T01:26:12.332Z,20.86
2017-07-30T01:27:09.613Z,20.86
2017-07-30T01:28:06.865Z,20.84
2017-07-30T01:29:04.124Z,20.83
2017-07-30T01:30:01.349Z,20.82
2017-07-30T01:30:58.629Z,20.81
2017-07-30T01:31:55.863Z,20.80
2017-07-30T01:32:53.143Z,20.80
2017-07-30T01:33:50.392Z,20.78
2017-07-30T01:34:47.686Z,20.79
2017-07-30T01:35:44.934Z,20.77
2017-07-30T01:36:42.229Z,20.76
2017-07-30T01:37:39.473Z,20.76
2017-07-30T01:38:36.749Z,20.75
2017-07-30T01:39:33.976Z,20.74
2017-07-30T01:40:31.232Z,20.73
2017-07-30T01:41:28.508Z,20.73
2017-07-30T01:42:25.796Z,20.72
2017-07-30T01:43:23.073Z,20.71
2017-07-30T01:44:20.421Z,20.71
2017-07-30T01:45:17.649Z,20.71
2017-07-30T01:46:14.920Z,20.69
2017-07-30T01:47:13.644Z,20.69
2017-07-30T01:48:10.941Z,20.66
2017-07-30T01:49:08.233Z,20.67
2017-07-30T01:50:05.524Z,20.66
2017-07-30T01:51:02.772Z,20.64
2017-07-30T01:52:00.037Z,20.64
2017-07-30T01:52:57.312Z,20.62
2017-07-30T01:53:54.616Z,20.63
2017-07-30T01:54:51.857Z,20.62
2017-07-30T01:55:49.118Z,20.60
2017-07-30T01:56:46.344Z,20.60
2017-07-30T01:57:43.616Z,20.59
2017-07-30T01:58:40.939Z,20.58
2017-07-30T01:59:38.204Z,20.57
2017-07-30T02:00:35.440Z,20.57
2017-07-30T02:01:32.704Z,20.55
2017-07-30T02:02:29.949Z,20.56
2017-07-30T02:03:27.293Z,20.53
2017-07-30T02:04:24.561Z,20.52
2017-07-30T02:05:21.924Z,20.51
2017-07-30T02:06:20.120Z,20.51
2017-07-30T02:07:17.373Z,20.50
2017-07-30T02:08:14.624Z,20.50
2017-07-30T02:09:11.898Z,20.49
2017-07-30T02:10:09.136Z,20.48
2017-07-30T02:11:06.397Z,20.46
2017-07-30T02:12:03.658Z,20.47
2017-07-30T02:13:00.929Z,20.46
2017-07-30T02:13:58.190Z,20.45
2017-07-30T02:14:55.436Z,20.44
2017-07-30T02:15:52.668Z,20.41
2017-07-30T02:16:49.913Z,20.41
2017-07-30T02:17:47.153Z,20.40
2017-07-30T02:18:44.428Z,20.39
2017-07-30T02:19:41.659Z,20.38
2017-07-30T02:20:38.912Z,20.38
2017-07-30T02:21:36.140Z,20.36
2017-07-30T02:22:33.397Z,20.35
2017-07-30T02:23:30.617Z,20.35
2017-07-30T02:24:27.888Z,20.34
2017-07-30T02:25:25.136Z,20.34
2017-07-30T02:26:22.513Z,20.31
2017-07-30T02:27:19.769Z,20.31
2017-07-30T02:28:17.095Z,20.30
2017-07-30T02:29:14.364Z,20.29
2017-07-30T02:30:11.640Z,20.28
2017-07-30T02:31:08.897Z,20.27
2017-07-30T02:32:06.169Z,20.26
2017-07-30T02:33:03.420Z,20.26
2017-07-30T02:34:00.703Z,20.24
2017-07-30T02:34:57.925Z,20.23
2017-07-30T02:35:55.188Z,20.23
2017-07-30T02:36:52.430Z,20.21
2017-07-30T02:37:49.701Z,20.20
2017-07-30T02:38:46.933Z,20.20
2017-07-30T02:39:44.208Z,20.19
2017-07-30T02:40:41.501Z,20.18
2017-07-30T02:41:38.767Z,20.16
2017-07-30T02:42:36.012Z,20.16
2017-07-30T02:43:33.476Z,20.14
2017-07-30T02:44:30.788Z,20.14
2017-07-30T02:45:28.065Z,20.13
2017-07-30T02:46:25.293Z,20.12
2017-07-30T02:47:22.548Z,20.11
2017-07-30T02:48:19.766Z,20.10
2017-07-30T02:49:17.037Z,20.10
2017-07-30T02:50:14.274Z,20.07
2017-07-30T02:51:11.520Z,20.07
2017-07-30T02:52:08.769Z,20.07
2017-07-30T02:53:06.043Z,20.06
2017-07-30T02:54:03.249Z,20.04
2017-07-30T02:55:00.516Z,20.04
2017-07-30T02:55:57.765Z,20.03
2017-07-30T02:56:55.012Z,20.03
2017-07-30T02:57:52.232Z,20.01
2017-07-30T02:58:49.496Z,20.00
2017-07-30T02:59:46.759Z,19.99
2017-07-30T03:00:44.025Z,19.98
2017-07-30T03:01:41.268Z,19.98
2017-07-30T03:02:38.524Z,19.96
2017-07-30T03:03:35.777Z,19.95
2017-07-30T03:04:33.044Z,19.96
2017-07-30T03:05:30.291Z,19.94
2017-07-30T03:06:27.541Z,19.94
2017-07-30T03:07:24.872Z,19.93
2017-07-30T03:08:22.243Z,19.91
2017-07-30T03:09:19.489Z,19.90
2017-07-30T03:10:16.765Z,19.90
2017-07-30T03:11:14.034Z,19.90
2017-07-30T03:12:11.311Z,19.88
2017-07-30T03:13:08.582Z,19.87
2017-07-30T03:14:05.861Z,19.86
2017-07-30T03:15:03.160Z,19.86
2017-07-30T03:16:00.586Z,19.85
2017-07-30T03:16:57.821Z,19.84
2017-07-30T03:17:55.080Z,19.83
2017-07-30T03:18:52.304Z,19.82
2017-07-30T03:19:49.602Z,19.81
2017-07-30T03:20:46.853Z,19.81
2017-07-30T03:21:44.113Z,19.79
2017-07-30T03:22:41.361Z,19.79
2017-07-30T03:23:38.609Z,19.78
2017-07-30T03:24:35.860Z,19.77
2017-07-30T03:25:33.160Z,19.76
2017-07-30T03:26:30.405Z,19.75
2017-07-30T03:27:27.668Z,19.74
2017-07-30T03:28:24.948Z,19.75
2017-07-30T03:29:22.212Z,19.74
2017-07-30T03:30:19.442Z,19.74
2017-07-30T03:31:16.773Z,19.73
2017-07-30T03:32:14.060Z,19.72
2017-07-30T03:33:11.405Z,19.72
2017-07-30T03:34:08.644Z,19.70
2017-07-30T03:35:05.921Z,19.70
2017-07-30T03:36:03.189Z,19.68
2017-07-30T03:37:00.437Z,19.67
2017-07-30T03:37:57.693Z,19.66
2017-07-30T03:38:54.980Z,19.66
2017-07-30T03:39:52.245Z,19.65
2017-07-30T03:40:49.532Z,19.63
2017-07-30T03:41:46.799Z,19.62
2017-07-30T03:42:44.205Z,19.62
2017-07-30T03:43:41.510Z,19.62
2017-07-30T03:44:39.006Z,19.61
2017-07-30T03:45:36.420Z,19.60
2017-07-30T03:46:33.691Z,19.59
2017-07-30T03:47:30.944Z,19.58
2017-07-30T03:48:28.204Z,19.58
2017-07-30T03:49:25.440Z,19.57
2017-07-30T03:50:22.729Z,19.56
2017-07-30T03:51:19.982Z,19.55
2017-07-30T03:52:17.238Z,19.54
2017-07-30T03:53:14.481Z,19.53
2017-07-30T03:54:11.758Z,19.53
2017-07-30T03:55:08.992Z,19.51
2017-07-30T03:56:06.289Z,19.52
2017-07-30T03:57:03.550Z,19.51
2017-07-30T03:58:00.812Z,19.50
2017-07-30T03:58:58.056Z,19.50
2017-07-30T03:59:55.320Z,19.48
2017-07-30T04:00:52.568Z,19.47
2017-07-30T04:01:49.833Z,19.47
2017-07-30T04:02:47.057Z,19.48
2017-07-30T04:03:44.313Z,19.45
2017-07-30T04:04:41.548Z,19.45
2017-07-30T04:05:38.803Z,19.44
2017-07-30T04:06:36.042Z,19.44
2017-07-30T04:07:33.305Z,19.44
2017-07-30T04:08:30.556Z,19.44
2017-07-30T04:09:27.812Z,19.43
2017-07-30T04:10:25.096Z,19.43
2017-07-30T04:11:22.407Z,19.42
2017-07-30T04:12:19.673Z,19.41
2017-07-30T04:13:17.053Z,19.40
2017-07-30T04:14:14.361Z,19.41
2017-07-30T04:15:11.679Z,19.38
2017-07-30T04:16:08.912Z,19.38
2017-07-30T04:17:06.302Z,19.37
2017-07-30T04:18:03.618Z,19.37
2017-07-30T04:19:00.978Z,19.37
2017-07-30T04:19:58.240Z,19.37
2017-07-30T04:20:55.500Z,19.35
2017-07-30T04:21:52.798Z,19.36
2017-07-30T04:22:50.060Z,19.36
2017-07-30T04:23:47.285Z,19.34
2017-07-30T04:24:44.532Z,19.35
2017-07-30T04:25:41.776Z,19.35
2017-07-30T04:26:39.087Z,19.34
2017-07-30T04:27:36.395Z,19.33
2017-07-30T04:28:33.657Z,19.33
2017-07-30T04:29:30.963Z,19.33
2017-07-30T04:30:28.262Z,19.33
2017-07-30T04:31:25.557Z,19.33
2017-07-30T04:32:22.865Z,19.32
2017-07-30T04:33:20.104Z,19.31
2017-07-30T04:34:17.388Z,19.32
2017-07-30T04:35:14.645Z,19.31
2017-07-30T04:36:11.914Z,19.32
2017-07-30T04:37:09.168Z,19.31
2017-07-30T04:38:06.453Z,19.30
2017-07-30T04:39:03.741Z,19.31
2017-07-30T04:40:01.000Z,19.32
2017-07-30T04:40:58.227Z,19.32
2017-07-30T04:41:55.480Z,19.31
2017-07-30T04:42:52.760Z,19.30
2017-07-30T04:43:50.181Z,19.30
2017-07-30T04:44:47.681Z,19.30
2017-07-30T04:45:44.939Z,19.30
2017-07-30T04:46:42.177Z,19.30
2017-07-30T04:47:39.527Z,19.32
2017-07-30T04:48:36.769Z,19.32
2017-07-30T04:49:34.034Z,19.31
2017-07-30T04:50:31.280Z,19.30
2017-07-30T04:51:28.537Z,19.31
2017-07-30T04:52:25.797Z,19.31
2017-07-30T04:53:23.080Z,19.31
2017-07-30T04:54:20.364Z,19.30
2017-07-30T04:55:17.716Z,19.31
2017-07-30T04:56:14.965Z,19.30
2017-07-30T04:57:12.243Z,19.32
2017-07-30T04:58:09.500Z,19.32
2017-07-30T04:59:06.826Z,19.31
2017-07-30T05:00:04.106Z,19.32
2017-07-30T05:01:01.487Z,19.32
2017-07-30T05:01:58.729Z,19.32
2017-07-30T05:02:56.011Z,19.33
2017-07-30T05:03:53.284Z,19.33
2017-07-30T05:04:50.550Z,19.33
2017-07-30T05:05:47.802Z,19.33
2017-07-30T05:06:45.068Z,19.34
2017-07-30T05:07:42.300Z,19.34
2017-07-30T05:08:39.705Z,19.36
2017-07-30T05:09:36.988Z,19.34
2017-07-30T05:10:34.275Z,19.37
2017-07-30T05:11:31.516Z,19.34
2017-07-30T05:12:28.792Z,19.37
2017-07-30T05:13:26.058Z,19.36
2017-07-30T05:14:23.377Z,19.36
2017-07-30T05:15:20.596Z,19.37
2017-07-30T05:16:17.861Z,19.37
2017-07-30T05:17:15.130Z,19.37
2017-07-30T05:18:12.481Z,19.37
2017-07-30T05:19:09.720Z,19.39
2017-07-30T05:20:06.956Z,19.39
2017-07-30T05:21:04.217Z,19.38
2017-07-30T05:22:01.513Z,19.39
2017-07-30T05:22:58.820Z,19.41
2017-07-30T05:23:56.159Z,19.40
2017-07-30T05:24:53.481Z,19.42
2017-07-30T05:25:50.801Z,19.43
2017-07-30T05:26:48.065Z,19.43
2017-07-30T05:27:45.354Z,19.43
2017-07-30T05:28:42.585Z,19.45
2017-07-30T05:29:39.856Z,19.45
2017-07-30T05:30:37.121Z,19.46
2017-07-30T05:31:34.523Z,19.46
2017-07-30T05:32:31.885Z,19.47
2017-07-30T05:33:29.209Z,19.49
2017-07-30T05:34:26.499Z,19.49
2017-07-30T05:35:23.757Z,19.49
2017-07-30T05:36:21.001Z,19.50
2017-07-30T05:37:18.275Z,19.51
2017-07-30T05:38:15.509Z,19.53
2017-07-30T05:39:12.836Z,19.52
2017-07-30T05:40:10.250Z,19.55
2017-07-30T05:41:07.519Z,19.55
2017-07-30T05:42:04.783Z,19.55
2017-07-30T05:43:02.078Z,19.56
2017-07-30T05:43:59.377Z,19.57
2017-07-30T05:44:56.675Z,19.57
2017-07-30T05:45:53.980Z,19.59
2017-07-30T05:46:51.301Z,19.59
2017-07-30T05:47:48.650Z,19.59
2017-07-30T05:48:45.998Z,19.60
2017-07-30T05:49:43.276Z,19.60
2017-07-30T05:50:40.728Z,19.61
2017-07-30T05:51:38.053Z,19.62
2017-07-30T05:52:35.501Z,19.63
2017-07-30T05:53:32.873Z,19.64
2017-07-30T05:54:30.184Z,19.64
2017-07-30T05:55:27.456Z,19.65
2017-07-30T05:56:24.760Z,19.66
2017-07-30T05:57:22.218Z,19.67
2017-07-30T05:58:19.516Z,19.68
2017-07-30T05:59:16.845Z,19.71
2017-07-30T06:00:14.188Z,19.70
2017-07-30T06:01:11.461Z,19.72
2017-07-30T06:02:08.750Z,19.72
2017-07-30T06:03:05.988Z,19.74
2017-07-30T06:04:03.367Z,19.75
2017-07-30T06:05:00.689Z,19.76
2017-07-30T06:05:57.961Z,19.77
2017-07-30T06:06:55.223Z,19.77
2017-07-30T06:07:52.721Z,19.79
2017-07-30T06:08:50.047Z,19.81
2017-07-30T06:09:47.461Z,19.80
2017-07-30T06:10:44.689Z,19.81
2017-07-30T06:11:42.060Z,19.83
2017-07-30T06:12:39.334Z,19.84
2017-07-30T06:13:36.653Z,19.83
2017-07-30T06:14:33.964Z,19.86
2017-07-30T06:15:31.256Z,19.85
2017-07-30T06:16:28.537Z,19.87
2017-07-30T06:17:25.826Z,19.88
2017-07-30T06:18:23.087Z,19.89
2017-07-30T06:19:20.395Z,19.89
2017-07-30T06:20:17.649Z,19.90
2017-07-30T06:21:15.135Z,19.91
2017-07-30T06:22:12.509Z,19.91
2017-07-30T06:23:09.818Z,19.92
2017-07-30T06:24:07.104Z,19.93
2017-07-30T06:25:04.427Z,19.93
2017-07-30T06:26:01.729Z,19.95
2017-07-30T06:26:59.116Z,19.96
2017-07-30T06:27:56.593Z,19.96
2017-07-30T06:28:54.035Z,19.98
2017-07-30T06:29:51.318Z,19.99
2017-07-30T06:30:48.682Z,20.00
2017-07-30T06:31:46.016Z,20.01
2017-07-30T06:32:43.312Z,20.02
2017-07-30T06:33:41.109Z,20.04
2017-07-30T06:34:38.517Z,20.05
2017-07-30T06:35:35.836Z,20.06
2017-07-30T06:36:33.127Z,20.07
2017-07-30T06:37:30.398Z,20.08
2017-07-30T06:38:27.735Z,20.10
2017-07-30T06:39:24.987Z,20.10
2017-07-30T06:40:22.325Z,20.11
2017-07-30T06:41:19.569Z,20.12
2017-07-30T06:42:16.872Z,20.14
2017-07-30T06:43:14.154Z,20.15
2017-07-30T06:44:11.580Z,20.17
2017-07-30T06:45:08.940Z,20.17
2017-07-30T06:46:06.359Z,20.19
2017-07-30T06:47:03.629Z,20.19
2017-07-30T06:48:00.952Z,20.21
2017-07-30T06:48:58.470Z,20.24
2017-07-30T06:49:55.768Z,20.25
2017-07-30T06:50:53.033Z,20.26
2017-07-30T06:51:50.381Z,20.28
2017-07-30T06:52:47.649Z,20.30
2017-07-30T06:53:44.940Z,20.31
2017-07-30T06:54:42.198Z,20.32
2017-07-30T06:55:39.494Z,20.34
2017-07-30T06:56:36.746Z,20.36
2017-07-30T06:57:34.073Z,20.36
2017-07-30T06:58:31.368Z,20.38
2017-07-30T06:59:28.692Z,20.39
2017-07-30T07:00:25.992Z,20.41
2017-07-30T07:01:23.397Z,20.43
2017-07-30T07:02:20.688Z,20.44
2017-07-30T07:03:18.008Z,20.43
2017-07-30T07:04:15.361Z,20.46
2017-07-30T07:05:12.725Z,20.46
2017-07-30T07:06:10.078Z,20.46
2017-07-30T07:07:07.449Z,20.48
2017-07-30T07:08:04.754Z,20.49
2017-07-30T07:09:02.024Z,20.50
2017-07-30T07:09:59.341Z,20.51
2017-07-30T07:10:56.621Z,20.52
2017-07-30T07:11:53.881Z,20.52
2017-07-30T07:12:51.144Z,20.53
2017-07-30T07:13:48.433Z,20.54
2017-07-30T07:14:45.708Z,20.56
2017-07-30T07:15:42.934Z,20.57
2017-07-30T07:16:40.258Z,20.58
2017-07-30T07:17:41.642Z,20.59
2017-07-30T07:18:38.976Z,20.59
2017-07-30T07:19:36.271Z,20.61
2017-07-30T07:20:33.568Z,20.61
2017-07-30T07:21:30.882Z,20.64
2017-07-30T07:22:28.229Z,20.64
2017-07-30T07:23:25.528Z,20.66
2017-07-30T07:24:22.780Z,20.67
2017-07-30T07:25:20.062Z,20.68
2017-07-30T07:26:17.397Z,20.68
2017-07-30T07:27:14.677Z,20.68
2017-07-30T07:28:11.986Z,20.71
2017-07-30T07:29:09.231Z,20.72
2017-07-30T07:30:06.514Z,20.72
2017-07-30T07:31:03.773Z,20.73
2017-07-30T07:32:01.093Z,20.73
2017-07-30T07:32:58.420Z,20.74
2017-07-30T07:33:55.760Z,20.75
2017-07-30T07:34:53.069Z,20.76
2017-07-30T07:35:50.362Z,20.76
2017-07-30T07:36:48.570Z,20.79
2017-07-30T07:37:47.592Z,20.78
2017-07-30T07:38:44.887Z,20.79
2017-07-30T07:39:42.178Z,20.80
2017-07-30T07:40:39.579Z,20.81
2017-07-30T07:41:36.918Z,20.83
2017-07-30T07:42:34.152Z,20.83
2017-07-30T07:43:31.461Z,20.85
2017-07-30T07:44:28.812Z,20.85
2017-07-30T07:45:28.628Z,20.87
2017-07-30T07:46:26.050Z,20.88
2017-07-30T07:47:28.489Z,20.88
2017-07-30T07:48:26.469Z,20.90
2017-07-30T07:49:23.902Z,20.90
2017-07-30T07:50:21.357Z,20.91
2017-07-30T07:51:18.599Z,20.92
2017-07-30T07:52:15.937Z,20.93
2017-07-30T07:53:13.333Z,20.92
2017-07-30T07:54:10.678Z,20.93
2017-07-30T07:55:08.004Z,20.95
2017-07-30T07:56:05.263Z,20.96
2017-07-30T07:57:02.561Z,20.97
2017-07-30T07:57:59.876Z,20.98
2017-07-30T07:58:57.195Z,20.98
2017-07-30T07:59:54.549Z,21.01
2017-07-30T08:00:51.784Z,21.02
2017-07-30T08:01:49.082Z,21.03
2017-07-30T08:02:46.437Z,21.03
2017-07-30T08:03:43.805Z,21.05
2017-07-30T08:04:41.084Z,21.07
2017-07-30T08:05:38.480Z,21.06
2017-07-30T08:06:35.754Z,21.09
2017-07-30T08:07:33.097Z,21.07
2017-07-30T08:08:30.348Z,21.09
2017-07-30T08:09:27.649Z,21.10
2017-07-30T08:10:24.953Z,21.11
2017-07-30T08:11:22.250Z,21.11
2017-07-30T08:12:19.502Z,21.11
2017-07-30T08:13:16.769Z,21.13
2017-07-30T08:14:14.056Z,21.12
2017-07-30T08:15:11.362Z,21.14
2017-07-30T08:16:08.640Z,21.14
2017-07-30T08:17:05.933Z,21.15
2017-07-30T08:18:03.194Z,21.16
2017-07-30T08:19:00.469Z,21.15
2017-07-30T08:19:57.699Z,21.17
2017-07-30T08:20:54.957Z,21.17
2017-07-30T08:21:52.256Z,21.18
2017-07-30T08:22:49.521Z,21.17
2017-07-30T08:23:46.783Z,21.19
2017-07-30T08:24:44.057Z,21.20
2017-07-30T08:25:41.328Z,21.19
2017-07-30T08:26:38.596Z,21.21
2017-07-30T08:27:35.850Z,21.20
2017-07-30T08:28:33.186Z,21.22
2017-07-30T08:29:30.435Z,21.23
2017-07-30T08:30:27.756Z,21.23
2017-07-30T08:31:25.037Z,21.24
2017-07-30T08:32:22.318Z,21.25
2017-07-30T08:33:19.646Z,21.25
2017-07-30T08:34:16.908Z,21.26
2017-07-30T08:35:14.153Z,21.28
2017-07-30T08:36:11.512Z,21.29
2017-07-30T08:37:08.769Z,21.29
2017-07-30T08:38:06.068Z,21.29
2017-07-30T08:39:03.357Z,21.31
2017-07-30T08:40:00.676Z,21.32
2017-07-30T08:40:57.968Z,21.34
2017-07-30T08:41:55.233Z,21.34
2017-07-30T08:42:52.494Z,21.36
2017-07-30T08:43:49.961Z,21.36
2017-07-30T08:44:47.292Z,21.38
2017-07-30T08:45:44.588Z,21.38
2017-07-30T08:46:42.048Z,21.39
2017-07-30T08:47:39.344Z,21.39
2017-07-30T08:48:36.705Z,21.41
2017-07-30T08:49:33.995Z,21.42
2017-07-30T08:50:31.247Z,21.45
2017-07-30T08:51:28.510Z,21.45
2017-07-30T08:52:26.611Z,21.45
2017-07-30T08:53:23.950Z,21.46
2017-07-30T08:54:21.192Z,21.47
2017-07-30T08:55:18.484Z,21.49
2017-07-30T08:56:15.768Z,21.49
2017-07-30T08:57:13.043Z,21.51
2017-07-30T08:58:11.952Z,21.52
2017-07-30T08:59:11.024Z,21.53
2017-07-30T09:00:08.305Z,21.53
2017-07-30T09:01:05.609Z,21.54
2017-07-30T09:02:02.851Z,21.55
2017-07-30T09:03:00.269Z,21.57
2017-07-30T09:03:57.552Z,21.58
2017-07-30T09:04:54.854Z,21.59
2017-07-30T09:05:52.170Z,21.60
2017-07-30T09:06:49.489Z,21.62
2017-07-30T09:07:46.755Z,21.62
2017-07-30T09:08:44.060Z,21.63
2017-07-30T09:09:41.355Z,21.63
2017-07-30T09:10:38.741Z,21.63
2017-07-30T09:11:36.008Z,21.65
2017-07-30T09:12:33.370Z,21.66
2017-07-30T09:13:30.646Z,21.68
2017-07-30T09:14:27.968Z,21.69
2017-07-30T09:15:25.342Z,21.69
2017-07-30T09:16:22.674Z,21.70
2017-07-30T09:17:19.953Z,21.71
2017-07-30T09:18:17.256Z,21.71
2017-07-30T09:19:14.542Z,21.72
2017-07-30T09:20:11.804Z,21.74
2017-07-30T09:21:09.050Z,21.76
2017-07-30T09:22:06.357Z,21.76
2017-07-30T09:23:03.589Z,21.77
2017-07-30T09:24:00.873Z,21.80
2017-07-30T09:24:58.131Z,21.80
2017-07-30T09:25:55.398Z,21.80
2017-07-30T09:26:52.640Z,21.81
2017-07-30T09:27:49.904Z,21.85
2017-07-30T09:28:47.152Z,21.85
2017-07-30T09:29:44.516Z,21.89
2017-07-30T09:30:41.762Z,21.89
2017-07-30T09:31:39.033Z,21.90
2017-07-30T09:32:36.320Z,21.91
2017-07-30T09:33:33.616Z,21.93
2017-07-30T09:34:30.894Z,21.94
2017-07-30T09:35:28.322Z,21.96
2017-07-30T09:36:25.554Z,21.97
2017-07-30T09:37:23.145Z,21.96
2017-07-30T09:38:20.401Z,21.98
2017-07-30T09:39:17.682Z,22.01
2017-07-30T09:40:14.956Z,22.02
2017-07-30T09:41:12.256Z,22.03
2017-07-30T09:42:09.477Z,22.04
2017-07-30T09:43:06.756Z,22.06
2017-07-30T09:44:04.180Z,22.08
2017-07-30T09:45:01.701Z,22.09
2017-07-30T09:45:58.956Z,22.10
2017-07-30T09:46:56.235Z,22.11
2017-07-30T09:47:53.500Z,22.12
2017-07-30T09:48:50.752Z,22.12
2017-07-30T09:49:48.073Z,22.14
2017-07-30T09:50:45.350Z,22.14
2017-07-30T09:51:42.597Z,22.14
2017-07-30T09:52:39.846Z,22.16
2017-07-30T09:53:37.072Z,22.17
2017-07-30T09:54:34.352Z,22.17
2017-07-30T09:55:31.627Z,22.20
2017-07-30T09:56:28.965Z,22.20
2017-07-30T09:57:26.221Z,22.21
2017-07-30T09:58:23.476Z,22.22
2017-07-30T09:59:20.757Z,22.23
2017-07-30T10:00:18.035Z,22.25
2017-07-30T10:01:15.314Z,22.25
2017-07-30T10:02:12.652Z,22.27
2017-07-30T10:03:09.917Z,22.28
2017-07-30T10:04:07.200Z,22.29
2017-07-30T10:05:04.448Z,22.30
2017-07-30T10:06:01.843Z,22.30
2017-07-30T10:06:59.206Z,22.32
2017-07-30T10:07:56.488Z,22.34
2017-07-30T10:08:53.720Z,22.35
2017-07-30T10:09:50.982Z,22.36
2017-07-30T10:10:48.220Z,22.37
2017-07-30T10:11:45.513Z,22.38
2017-07-30T10:12:42.736Z,22.38
2017-07-30T10:13:40.014Z,22.39
2017-07-30T10:14:37.282Z,22.42
2017-07-30T10:15:34.569Z,22.42
2017-07-30T10:16:31.799Z,22.43
2017-07-30T10:17:29.052Z,22.43
2017-07-30T10:18:26.277Z,22.45
2017-07-30T10:19:23.540Z,22.46
2017-07-30T10:20:20.846Z,22.47
2017-07-30T10:21:18.153Z,22.47
2017-07-30T10:22:15.392Z,22.48
2017-07-30T10:23:12.709Z,22.51
2017-07-30T10:24:10.007Z,22.49
2017-07-30T10:25:07.298Z,22.51
2017-07-30T10:26:04.601Z,22.52
2017-07-30T10:27:01.980Z,22.52
2017-07-30T10:27:59.365Z,22.54
2017-07-30T10:28:56.824Z,22.56
2017-07-30T10:29:54.097Z,22.55
2017-07-30T10:30:51.424Z,22.56
2017-07-30T10:31:48.648Z,22.57
2017-07-30T10:32:46.652Z,22.57
2017-07-30T10:33:43.898Z,22.60
2017-07-30T10:34:41.212Z,22.59
2017-07-30T10:35:38.464Z,22.63
2017-07-30T10:36:35.768Z,22.64
2017-07-30T10:37:33.064Z,22.66
2017-07-30T10:38:30.397Z,22.66
2017-07-30T10:39:27.670Z,22.68
2017-07-30T10:40:24.974Z,22.68
2017-07-30T10:41:22.244Z,22.69
2017-07-30T10:42:19.488Z,22.70
2017-07-30T10:43:16.732Z,22.72
2017-07-30T10:44:14.066Z,22.73
2017-07-30T10:45:11.357Z,22.74
2017-07-30T10:46:08.667Z,22.75
2017-07-30T10:47:05.908Z,22.75
2017-07-30T10:48:03.217Z,22.77
2017-07-30T10:49:00.466Z,22.76
2017-07-30T10:49:57.725Z,22.78
2017-07-30T10:50:54.968Z,22.79
2017-07-30T10:51:52.325Z,22.80
2017-07-30T10:52:49.649Z,22.80
2017-07-30T10:53:46.916Z,22.82
2017-07-30T10:54:44.191Z,22.83
2017-07-30T10:55:41.461Z,22.84
2017-07-30T10:56:38.768Z,22.85
2017-07-30T10:57:36.102Z,22.86
2017-07-30T10:58:33.333Z,22.86
2017-07-30T10:59:30.617Z,22.87
2017-07-30T11:00:27.921Z,22.89
2017-07-30T11:01:25.249Z,22.90
2017-07-30T11:02:22.541Z,22.91
2017-07-30T11:03:19.805Z,22.93
2017-07-30T11:04:17.055Z,22.93
2017-07-30T11:05:14.360Z,22.93
2017-07-30T11:06:11.609Z,22.96
2017-07-30T11:07:08.903Z,22.97
2017-07-30T11:08:06.181Z,22.96
2017-07-30T11:09:03.589Z,22.98
2017-07-30T11:10:00.838Z,22.98
2017-07-30T11:10:58.120Z,23.01
2017-07-30T11:11:55.374Z,23.02
2017-07-30T11:12:52.653Z,23.02
2017-07-30T11:13:49.927Z,23.03
2017-07-30T11:14:47.203Z,23.04
2017-07-30T11:15:44.472Z,23.06
2017-07-30T11:16:41.744Z,23.07
2017-07-30T11:17:39.051Z,23.06
2017-07-30T11:18:36.306Z,23.08
2017-07-30T11:19:33.584Z,23.08
2017-07-30T11:20:30.827Z,23.10
2017-07-30T11:21:28.093Z,23.11
2017-07-30T11:22:25.431Z,23.11
2017-07-30T11:23:22.652Z,23.11
2017-07-30T11:24:19.901Z,23.12
2017-07-30T11:25:17.120Z,23.13
2017-07-30T11:26:14.364Z,23.12
2017-07-30T11:27:11.620Z,23.13
2017-07-30T11:28:08.934Z,23.13
2017-07-30T11:29:06.168Z,23.14
2017-07-30T11:30:03.408Z,23.15
2017-07-30T11:31:00.641Z,23.15
2017-07-30T11:31:57.895Z,23.16
2017-07-30T11:32:55.143Z,23.17
2017-07-30T11:33:52.456Z,23.18
2017-07-30T11:34:49.709Z,23.18
2017-07-30T11:35:46.969Z,23.19
2017-07-30T11:36:44.207Z,23.20
2017-07-30T11:37:41.486Z,23.20
2017-07-30T11:38:38.772Z,23.20
2017-07-30T11:39:36.036Z,23.21
2017-07-30T11:40:33.250Z,23.22
2017-07-30T11:41:30.620Z,23.23
2017-07-30T11:42:27.885Z,23.22
2017-07-30T11:43:25.201Z,23.24
2017-07-30T11:44:22.447Z,23.25
2017-07-30T11:45:19.700Z,23.26
2017-07-30T11:46:16.920Z,23.25
2017-07-30T11:47:14.176Z,23.28
2017-07-30T11:48:11.431Z,23.28
2017-07-30T11:49:08.690Z,23.29
2017-07-30T11:50:05.924Z,23.28
2017-07-30T11:51:03.176Z,23.29
2017-07-30T11:52:00.398Z,23.29
2017-07-30T11:52:57.757Z,23.31
2017-07-30T11:53:54.975Z,23.31
2017-07-30T11:54:52.281Z,23.31
2017-07-30T11:55:49.521Z,23.34
2017-07-30T11:56:46.800Z,23.33
2017-07-30T11:57:44.045Z,23.34
2017-07-30T11:58:41.345Z,23.34
2017-07-30T11:59:38.593Z,23.35
2017-07-30T12:00:35.865Z,23.35
2017-07-30T12:01:33.117Z,23.37
2017-07-30T12:02:30.440Z,23.36
2017-07-30T12:03:27.674Z,23.36
2017-07-30T12:04:24.924Z,23.37
2017-07-30T12:05:22.160Z,23.38
2017-07-30T12:06:19.482Z,23.37
2017-07-30T12:07:16.724Z,23.38
2017-07-30T12:08:14.038Z,23.39
2017-07-30T12:09:11.289Z,23.40
2017-07-30T12:10:08.580Z,23.41
2017-07-30T12:11:05.883Z,23.42
2017-07-30T12:12:03.149Z,23.42
2017-07-30T12:13:00.385Z,23.43
2017-07-30T12:13:57.669Z,23.45
2017-07-30T12:14:54.966Z,23.45
2017-07-30T12:15:52.232Z,23.46
2017-07-30T12:16:49.452Z,23.47
2017-07-30T12:17:46.687Z,23.48